NOZ1718 ENGM-LEMD
Flight info
| Callsign | NOZ1718 |
|---|---|
| Flight time | N/A |
| Altitude | 37000 |
| Route | VIPPA DCT AMSEV DCT OMIMA DCT WOODY/N0437F370 N872 NIK DCT KOVIN DCT DUCRA DCT RESMI DCT DEKOD DCT DISAK DCT ARKIP DCT ARNAV DCT LMG DCT UVELI DCT OSMOB DCT ARVID DCT PPN DCT NOLSA DCT ALEPO DCT VASUM DCT BANEV |
| Aircraft | B738/M-SADE3GHIJ1LRWXY/LB1 |
Departure
| Time | 2026-05-01 09:59 |
|---|---|
| Airport | Oslo-Gardermoen International Airport (ENGM) |
Arrival
| Time | N/A |
|---|---|
| Airport | Adolfo Suárez Madrid–Barajas Airport (LEMD) |
| Time | Latitude | Longitude | Altitude | Speed | Heading |
|---|---|---|---|---|---|
| 2026-05-01 09:34 | 60.19265 | 11.10835 | 677 ft | 0 kts | 340° |
| 2026-05-01 09:50 | 60.19254 | 11.10844 | 679 ft | 2 kts | 338° |
| 2026-05-01 09:50 | 60.19239 | 11.10857 | 677 ft | 2 kts | 335° |
| 2026-05-01 09:51 | 60.19224 | 11.10867 | 678 ft | 2 kts | 10° |
| 2026-05-01 09:51 | 60.19211 | 11.10848 | 680 ft | 2 kts | 80° |
| 2026-05-01 09:51 | 60.19211 | 11.10816 | 677 ft | 2 kts | 99° |
| 2026-05-01 09:51 | 60.19214 | 11.10789 | 678 ft | 1 kts | 104° |
| 2026-05-01 09:52 | 60.19214 | 11.10784 | 678 ft | 0 kts | 104° |
| 2026-05-01 09:53 | 60.19208 | 11.10835 | 675 ft | 8 kts | 105° |
| 2026-05-01 09:53 | 60.19190 | 11.10957 | 678 ft | 10 kts | 107° |
| 2026-05-01 09:53 | 60.19179 | 11.11114 | 682 ft | 13 kts | 69° |
| 2026-05-01 09:53 | 60.19257 | 11.11188 | 682 ft | 13 kts | 15° |
| 2026-05-01 09:54 | 60.19340 | 11.11234 | 680 ft | 8 kts | 15° |
| 2026-05-01 09:54 | 60.19394 | 11.11266 | 683 ft | 9 kts | 16° |
| 2026-05-01 09:54 | 60.19492 | 11.11324 | 683 ft | 18 kts | 16° |
| 2026-05-01 09:54 | 60.19609 | 11.11392 | 684 ft | 17 kts | 16° |
| 2026-05-01 09:55 | 60.19684 | 11.11435 | 680 ft | 7 kts | 16° |
| 2026-05-01 09:55 | 60.19729 | 11.11461 | 684 ft | 7 kts | 16° |
| 2026-05-01 09:55 | 60.19794 | 11.11498 | 685 ft | 13 kts | 15° |
| 2026-05-01 09:55 | 60.19891 | 11.11554 | 685 ft | 15 kts | 16° |
| 2026-05-01 09:56 | 60.19989 | 11.11610 | 687 ft | 14 kts | 16° |
| 2026-05-01 09:56 | 60.20074 | 11.11667 | 686 ft | 12 kts | 34° |
| 2026-05-01 09:56 | 60.20078 | 11.11820 | 683 ft | 12 kts | 106° |
| 2026-05-01 09:56 | 60.20058 | 11.11958 | 687 ft | 9 kts | 105° |
| 2026-05-01 09:57 | 60.20054 | 11.11995 | 682 ft | 0 kts | 105° |
| 2026-05-01 09:58 | 60.20052 | 11.12008 | 684 ft | 4 kts | 105° |
| 2026-05-01 09:58 | 60.20038 | 11.12111 | 681 ft | 11 kts | 105° |
| 2026-05-01 09:58 | 60.20014 | 11.12183 | 680 ft | 6 kts | 173° |
| 2026-05-01 09:58 | 60.19976 | 11.12164 | 682 ft | 6 kts | 196° |
| 2026-05-01 09:59 | 60.19743 | 11.12031 | 681 ft | 70 kts | 196° |
| 2026-05-01 09:59 | 60.19052 | 11.11635 | 686 ft | 134 kts | 196° |
| 2026-05-01 09:59 | 60.18012 | 11.11040 | 890 ft | 167 kts | 196° |
| 2026-05-01 09:59 | 60.16914 | 11.10392 | 1771 ft | 162 kts | 198° |
| 2026-05-01 10:00 | 60.15824 | 11.09770 | 2577 ft | 167 kts | 199° |
| 2026-05-01 10:00 | 60.14598 | 11.09074 | 2954 ft | 200 kts | 199° |
| 2026-05-01 10:00 | 60.13172 | 11.08271 | 3212 ft | 229 kts | 196° |
| 2026-05-01 10:00 | 60.11493 | 11.07775 | 3580 ft | 255 kts | 189° |
| 2026-05-01 10:01 | 60.09730 | 11.07439 | 4409 ft | 260 kts | 189° |
| 2026-05-01 10:01 | 60.07924 | 11.07072 | 5364 ft | 261 kts | 190° |
| 2026-05-01 10:01 | 60.06114 | 11.06693 | 6300 ft | 262 kts | 192° |
| 2026-05-01 10:01 | 60.04349 | 11.05869 | 7137 ft | 260 kts | 203° |
| 2026-05-01 10:02 | 60.02645 | 11.04616 | 7999 ft | 261 kts | 206° |
| 2026-05-01 10:02 | 60.00949 | 11.03274 | 8877 ft | 264 kts | 206° |
| 2026-05-01 10:02 | 59.99232 | 11.01900 | 9681 ft | 268 kts | 206° |
| 2026-05-01 10:02 | 59.97485 | 11.00508 | 10444 ft | 273 kts | 206° |
| 2026-05-01 10:03 | 59.95685 | 10.99075 | 10749 ft | 295 kts | 206° |
| 2026-05-01 10:03 | 59.93700 | 10.97501 | 10961 ft | 318 kts | 206° |
| 2026-05-01 10:03 | 59.91600 | 10.95853 | 11468 ft | 328 kts | 206° |
| 2026-05-01 10:03 | 59.89459 | 10.94191 | 12216 ft | 332 kts | 206° |
| 2026-05-01 10:04 | 59.87306 | 10.92533 | 13044 ft | 332 kts | 206° |
| 2026-05-01 10:04 | 59.85141 | 10.90867 | 13821 ft | 335 kts | 206° |
| 2026-05-01 10:04 | 59.82955 | 10.89186 | 14520 ft | 339 kts | 206° |
| 2026-05-01 10:04 | 59.80743 | 10.87486 | 15198 ft | 341 kts | 207° |
| 2026-05-01 10:05 | 59.78523 | 10.85783 | 15884 ft | 344 kts | 206° |
| 2026-05-01 10:05 | 59.76314 | 10.84090 | 16549 ft | 346 kts | 206° |
| 2026-05-01 10:05 | 59.74055 | 10.82362 | 17214 ft | 349 kts | 206° |
| 2026-05-01 10:05 | 59.71777 | 10.80620 | 17858 ft | 352 kts | 206° |
| 2026-05-01 10:06 | 59.69477 | 10.78865 | 18519 ft | 356 kts | 206° |
| 2026-05-01 10:06 | 59.67160 | 10.77101 | 19081 ft | 359 kts | 206° |
| 2026-05-01 10:06 | 59.64813 | 10.75315 | 19609 ft | 363 kts | 206° |
| 2026-05-01 10:06 | 59.62443 | 10.73514 | 20122 ft | 367 kts | 206° |
| 2026-05-01 10:07 | 59.60045 | 10.71695 | 20651 ft | 371 kts | 206° |
| 2026-05-01 10:07 | 59.57660 | 10.69890 | 21168 ft | 374 kts | 206° |
| 2026-05-01 10:07 | 59.55223 | 10.68049 | 21689 ft | 377 kts | 206° |
| 2026-05-01 10:07 | 59.52763 | 10.66192 | 22190 ft | 381 kts | 206° |
| 2026-05-01 10:08 | 59.47771 | 10.62432 | 23184 ft | 387 kts | 206° |
| 2026-05-01 10:08 | 59.45240 | 10.60531 | 23644 ft | 391 kts | 205° |
| 2026-05-01 10:08 | 59.42680 | 10.58611 | 23974 ft | 397 kts | 205° |
| 2026-05-01 10:09 | 59.40086 | 10.56668 | 24367 ft | 400 kts | 205° |
| 2026-05-01 10:09 | 59.37482 | 10.54723 | 24825 ft | 401 kts | 205° |
| 2026-05-01 10:09 | 59.34869 | 10.52775 | 25243 ft | 403 kts | 205° |
| 2026-05-01 10:09 | 59.32273 | 10.50841 | 25615 ft | 406 kts | 205° |
| 2026-05-01 10:10 | 59.29631 | 10.48875 | 25978 ft | 408 kts | 205° |
| 2026-05-01 10:10 | 59.26963 | 10.46894 | 26356 ft | 411 kts | 205° |